createdAt,value
2019-04-28T00:01:14.677Z,13.43
2019-04-28T00:02:20.540Z,13.42
2019-04-28T00:03:25.383Z,13.35
2019-04-28T00:04:29.017Z,13.38
2019-04-28T00:05:33.265Z,13.50
2019-04-28T00:06:37.076Z,13.50
2019-04-28T00:07:41.176Z,13.53
2019-04-28T00:08:44.958Z,13.58
2019-04-28T00:09:48.583Z,13.58
2019-04-28T00:10:53.380Z,13.57
2019-04-28T00:11:57.162Z,13.57
2019-04-28T00:13:01.041Z,13.52
2019-04-28T00:14:04.808Z,13.48
2019-04-28T00:15:08.611Z,13.58
2019-04-28T00:16:12.242Z,13.63
2019-04-28T00:17:16.276Z,13.67
2019-04-28T00:18:21.784Z,13.71
2019-04-28T00:19:26.207Z,13.62
2019-04-28T00:20:47.684Z,13.57
2019-04-28T00:21:55.565Z,13.62
2019-04-28T00:23:01.718Z,13.70
2019-04-28T00:24:16.645Z,13.68
2019-04-28T00:25:24.658Z,13.61
2019-04-28T00:26:31.087Z,13.41
2019-04-28T00:27:34.869Z,13.41
2019-04-28T00:28:38.504Z,13.46
2019-04-28T00:29:46.091Z,13.49
2019-04-28T00:30:47.612Z,13.56
2019-04-28T00:31:51.446Z,13.40
2019-04-28T00:32:55.085Z,13.40
2019-04-28T00:33:58.728Z,13.27
2019-04-28T00:35:02.525Z,13.14
2019-04-28T00:36:06.251Z,13.20
2019-04-28T00:37:14.354Z,13.10
2019-04-28T00:38:17.985Z,13.10
2019-04-28T00:39:22.761Z,12.84
2019-04-28T00:40:26.601Z,12.86
2019-04-28T00:41:30.939Z,12.82
2019-04-28T00:42:35.026Z,12.85
2019-04-28T00:43:38.682Z,12.85
2019-04-28T00:44:43.440Z,12.92
2019-04-28T00:45:47.358Z,13.02
2019-04-28T00:46:51.296Z,13.02
2019-04-28T00:47:55.062Z,13.03
2019-04-28T00:48:58.696Z,12.98
2019-04-28T00:50:02.371Z,13.02
2019-04-28T00:51:06.001Z,13.05
2019-04-28T00:52:11.121Z,13.04
2019-04-28T00:53:14.972Z,12.95
2019-04-28T00:54:18.617Z,13.09
2019-04-28T00:55:22.274Z,13.09
2019-04-28T00:56:25.847Z,13.08
2019-04-28T00:57:30.926Z,13.09
2019-04-28T00:58:34.823Z,13.09
2019-04-28T00:59:51.060Z,13.18
2019-04-28T01:00:45.569Z,13.21
2019-04-28T01:01:53.573Z,13.23
2019-04-28T01:02:57.169Z,13.34
2019-04-28T01:04:02.072Z,13.34
2019-04-28T01:05:08.330Z,13.35
2019-04-28T01:06:14.071Z,13.40
2019-04-28T01:07:17.316Z,13.37
2019-04-28T01:08:21.001Z,13.37
2019-04-28T01:09:24.654Z,13.31
2019-04-28T01:10:30.796Z,13.33
2019-04-28T01:11:34.238Z,13.25
2019-04-28T01:12:37.890Z,13.25
2019-04-28T01:13:41.978Z,13.34
2019-04-28T01:14:45.804Z,13.34
2019-04-28T01:15:53.828Z,13.31
2019-04-28T01:17:05.077Z,13.29
2019-04-28T01:18:22.556Z,13.31
2019-04-28T01:19:30.739Z,13.33
2019-04-28T01:20:34.366Z,13.32
2019-04-28T01:21:57.906Z,13.32
2019-04-28T01:23:01.565Z,13.31
2019-04-28T01:24:05.226Z,13.31
2019-04-28T01:25:10.510Z,13.26
2019-04-28T01:26:14.309Z,13.16
2019-04-28T01:27:25.290Z,12.96
2019-04-28T01:28:29.773Z,12.96
2019-04-28T01:29:33.562Z,13.00
2019-04-28T01:30:41.599Z,12.94
2019-04-28T01:31:55.783Z,13.05
2019-04-28T01:33:01.093Z,13.03
2019-04-28T01:34:10.306Z,13.03
2019-04-28T01:35:14.048Z,13.05
2019-04-28T01:36:17.782Z,13.05
2019-04-28T01:37:21.420Z,13.03
2019-04-28T01:38:25.083Z,13.04
2019-04-28T01:39:29.695Z,13.03
2019-04-28T01:40:33.476Z,13.06
2019-04-28T01:41:37.112Z,13.03
2019-04-28T01:42:41.313Z,13.00
2019-04-28T01:43:45.108Z,12.97
2019-04-28T01:44:49.522Z,12.94
2019-04-28T01:45:53.344Z,12.95
2019-04-28T01:46:57.269Z,12.94
2019-04-28T01:48:02.263Z,12.94
2019-04-28T01:49:06.157Z,12.95
2019-04-28T01:50:10.382Z,12.97
2019-04-28T01:51:14.066Z,13.00
2019-04-28T01:52:17.707Z,13.00
2019-04-28T01:53:21.351Z,13.02
2019-04-28T01:54:24.996Z,13.00
2019-04-28T01:55:29.616Z,13.00
2019-04-28T01:56:33.417Z,12.99
2019-04-28T01:57:37.062Z,13.00
2019-04-28T01:58:40.731Z,12.98
2019-04-28T01:59:44.385Z,13.01
2019-04-28T02:00:48.128Z,13.01
2019-04-28T02:01:51.767Z,13.02
2019-04-28T02:02:55.407Z,13.02
2019-04-28T02:04:00.227Z,13.02
2019-04-28T02:05:05.184Z,12.97
2019-04-28T02:06:10.031Z,12.98
2019-04-28T02:07:13.827Z,12.97
2019-04-28T02:08:17.788Z,12.97
2019-04-28T02:09:21.814Z,12.96
2019-04-28T02:10:25.443Z,12.97
2019-04-28T02:11:29.637Z,12.98
2019-04-28T02:12:33.352Z,12.99
2019-04-28T02:13:36.987Z,13.03
2019-04-28T02:14:40.622Z,13.03
2019-04-28T02:15:44.258Z,13.03
2019-04-28T02:16:47.972Z,13.01
2019-04-28T02:17:51.727Z,13.05
2019-04-28T02:18:55.328Z,13.04
2019-04-28T02:20:00.605Z,13.01
2019-04-28T02:21:06.145Z,13.05
2019-04-28T02:22:11.488Z,12.94
2019-04-28T02:23:16.781Z,13.08
2019-04-28T02:24:31.148Z,13.09
2019-04-28T02:25:34.793Z,12.94
2019-04-28T02:26:40.189Z,12.94
2019-04-28T02:27:44.030Z,12.96
2019-04-28T02:28:47.650Z,12.95
2019-04-28T02:29:51.314Z,12.95
2019-04-28T02:30:54.953Z,12.94
2019-04-28T02:32:01.700Z,12.92
2019-04-28T02:33:04.121Z,12.94
2019-04-28T02:34:10.735Z,12.96
2019-04-28T02:35:13.418Z,12.93
2019-04-28T02:36:17.055Z,12.89
2019-04-28T02:37:20.847Z,12.83
2019-04-28T02:38:24.561Z,12.82
2019-04-28T02:39:30.885Z,12.82
2019-04-28T02:40:33.930Z,12.85
2019-04-28T02:41:37.566Z,12.83
2019-04-28T02:42:41.334Z,12.75
2019-04-28T02:43:44.983Z,12.76
2019-04-28T02:44:50.507Z,12.76
2019-04-28T02:45:54.724Z,12.79
2019-04-28T02:47:00.667Z,12.82
2019-04-28T02:48:05.349Z,12.84
2019-04-28T02:49:10.686Z,12.85
2019-04-28T02:50:15.996Z,12.87
2019-04-28T02:51:21.253Z,12.90
2019-04-28T02:52:30.887Z,12.91
2019-04-28T02:53:36.392Z,12.94
2019-04-28T02:54:40.501Z,12.98
2019-04-28T02:55:44.302Z,12.96
2019-04-28T02:56:50.596Z,12.92
2019-04-28T02:57:53.661Z,12.90
2019-04-28T02:58:57.309Z,12.83
2019-04-28T03:00:00.976Z,12.81
2019-04-28T03:01:13.003Z,12.79
2019-04-28T03:02:10.661Z,12.71
2019-04-28T03:03:14.485Z,12.71
2019-04-28T03:04:20.246Z,12.68
2019-04-28T03:05:23.522Z,12.62
2019-04-28T03:06:27.177Z,12.63
2019-04-28T03:07:31.431Z,12.61
2019-04-28T03:08:35.337Z,12.65
2019-04-28T03:09:40.405Z,12.65
2019-04-28T03:10:44.239Z,12.71
2019-04-28T03:11:47.873Z,12.77
2019-04-28T03:12:52.165Z,12.77
2019-04-28T03:13:55.933Z,12.74
2019-04-28T03:15:00.541Z,12.66
2019-04-28T03:16:04.527Z,12.60
2019-04-28T03:17:10.726Z,12.61
2019-04-28T03:18:13.542Z,12.57
2019-04-28T03:19:17.168Z,12.51
2019-04-28T03:20:21.296Z,12.48
2019-04-28T03:21:25.512Z,12.46
2019-04-28T03:22:31.288Z,12.45
2019-04-28T03:23:34.512Z,12.46
2019-04-28T03:24:41.089Z,12.51
2019-04-28T03:25:45.161Z,12.51
2019-04-28T03:26:56.291Z,12.32
2019-04-28T03:28:07.580Z,12.37
2019-04-28T03:29:30.512Z,12.37
2019-04-28T03:30:35.916Z,12.33
2019-04-28T03:32:09.478Z,12.26
2019-04-28T03:32:58.371Z,12.18
2019-04-28T03:33:56.864Z,12.19
2019-04-28T03:35:02.860Z,12.26
2019-04-28T03:36:08.644Z,12.25
2019-04-28T03:37:11.493Z,12.26
2019-04-28T03:38:15.338Z,12.24
2019-04-28T03:39:20.438Z,12.26
2019-04-28T03:40:24.273Z,12.26
2019-04-28T03:41:30.879Z,12.31
2019-04-28T03:42:33.296Z,12.25
2019-04-28T03:43:36.966Z,12.26
2019-04-28T03:44:41.401Z,12.36
2019-04-28T03:46:02.798Z,12.38
2019-04-28T03:47:04.401Z,12.41
2019-04-28T03:48:08.059Z,12.42
2019-04-28T03:49:13.384Z,12.47
2019-04-28T03:50:16.957Z,12.52
2019-04-28T03:51:21.336Z,12.53
2019-04-28T03:52:25.022Z,12.57
2019-04-28T03:53:31.203Z,12.58
2019-04-28T03:54:34.175Z,12.56
2019-04-28T03:55:37.807Z,12.52
2019-04-28T03:56:41.776Z,12.51
2019-04-28T03:57:45.403Z,12.52
2019-04-28T03:58:50.444Z,12.44
2019-04-28T03:59:54.320Z,12.44
2019-04-28T04:01:02.638Z,12.42
2019-04-28T04:02:03.621Z,12.43
2019-04-28T04:03:07.336Z,12.46
2019-04-28T04:04:11.373Z,12.53
2019-04-28T04:05:15.142Z,12.48
2019-04-28T04:06:18.768Z,12.49
2019-04-28T04:07:22.479Z,12.57
2019-04-28T04:08:26.108Z,12.58
2019-04-28T04:09:31.377Z,12.62
2019-04-28T04:10:42.615Z,12.66
2019-04-28T04:12:04.388Z,12.68
2019-04-28T04:13:10.991Z,12.72
2019-04-28T04:14:16.549Z,12.73
2019-04-28T04:15:23.853Z,12.72
2019-04-28T04:16:30.782Z,12.72
2019-04-28T04:17:36.238Z,12.72
2019-04-28T04:18:47.463Z,12.75
2019-04-28T04:19:51.112Z,12.77
2019-04-28T04:20:54.757Z,12.76
2019-04-28T04:22:00.367Z,12.77
2019-04-28T04:23:03.807Z,12.79
2019-04-28T04:24:07.466Z,12.83
2019-04-28T04:25:12.711Z,12.88
2019-04-28T04:26:16.533Z,12.89
2019-04-28T04:27:20.930Z,12.91
2019-04-28T04:28:24.765Z,12.94
2019-04-28T04:29:30.856Z,12.91
2019-04-28T04:30:33.765Z,12.91
2019-04-28T04:31:37.411Z,12.91
2019-04-28T04:32:41.376Z,12.93
2019-04-28T04:33:45.111Z,12.99
2019-04-28T04:34:50.570Z,12.99
2019-04-28T04:35:54.101Z,13.01
2019-04-28T04:36:57.759Z,13.03
2019-04-28T04:38:02.020Z,13.06
2019-04-28T04:39:10.610Z,13.10
2019-04-28T04:40:13.537Z,13.10
2019-04-28T04:41:17.316Z,13.04
2019-04-28T04:42:20.983Z,13.06
2019-04-28T04:43:24.737Z,13.10
2019-04-28T04:44:30.864Z,13.20
2019-04-28T04:45:37.057Z,13.26
2019-04-28T04:46:41.605Z,13.33
2019-04-28T04:47:45.391Z,13.40
2019-04-28T04:48:50.764Z,13.40
2019-04-28T04:49:54.640Z,13.39
2019-04-28T04:51:00.670Z,13.39
2019-04-28T04:52:04.236Z,13.33
2019-04-28T04:53:07.847Z,13.40
2019-04-28T04:54:11.848Z,13.43
2019-04-28T04:55:15.482Z,13.45
2019-04-28T04:56:21.096Z,13.43
2019-04-28T04:57:24.488Z,13.46
2019-04-28T04:58:30.399Z,13.33
2019-04-28T04:59:35.193Z,13.32
2019-04-28T05:00:55.817Z,13.38
2019-04-28T05:02:26.406Z,13.42
2019-04-28T05:03:36.135Z,13.42
2019-04-28T05:04:44.231Z,13.41
2019-04-28T05:05:47.866Z,13.36
2019-04-28T05:06:51.510Z,13.22
2019-04-28T05:07:55.234Z,13.22
2019-04-28T05:08:59.897Z,13.28
2019-04-28T05:10:04.860Z,13.36
2019-04-28T05:11:09.603Z,13.46
2019-04-28T05:12:13.710Z,13.52
2019-04-28T05:13:17.386Z,13.55
2019-04-28T05:14:21.196Z,13.39
2019-04-28T05:15:24.858Z,13.39
2019-04-28T05:16:29.790Z,13.48
2019-04-28T05:17:33.513Z,13.53
2019-04-28T05:18:37.274Z,13.60
2019-04-28T05:19:40.962Z,13.63
2019-04-28T05:20:44.526Z,13.69
2019-04-28T05:21:49.769Z,13.76
2019-04-28T05:22:55.238Z,13.85
2019-04-28T05:24:15.812Z,13.92
2019-04-28T05:25:24.550Z,13.84
2019-04-28T05:26:30.006Z,13.84
2019-04-28T05:27:33.788Z,13.93
2019-04-28T05:28:43.917Z,14.07
2019-04-28T05:29:42.821Z,14.07
2019-04-28T05:30:46.445Z,14.24
2019-04-28T05:31:50.483Z,14.37
2019-04-28T05:32:56.556Z,14.38
2019-04-28T05:34:00.116Z,14.41
2019-04-28T05:35:04.253Z,14.50
2019-04-28T05:36:07.959Z,14.52
2019-04-28T05:37:11.605Z,14.52
2019-04-28T05:38:15.580Z,14.53
2019-04-28T05:39:19.626Z,14.61
2019-04-28T05:40:23.517Z,14.60
2019-04-28T05:41:27.169Z,14.64
2019-04-28T05:42:30.828Z,14.72
2019-04-28T05:43:34.494Z,14.69
2019-04-28T05:44:38.212Z,14.64
2019-04-28T05:45:41.926Z,14.75
2019-04-28T05:46:45.572Z,14.81
2019-04-28T05:47:50.184Z,14.84
2019-04-28T05:49:02.254Z,14.82
2019-04-28T05:50:10.876Z,14.85
2019-04-28T05:51:22.157Z,14.85
2019-04-28T05:52:43.924Z,14.86
2019-04-28T05:53:59.536Z,14.90
2019-04-28T05:55:20.575Z,14.94
2019-04-28T05:56:29.585Z,14.65
2019-04-28T05:57:35.012Z,14.58
2019-04-28T05:58:40.317Z,14.67
2019-04-28T05:59:45.928Z,14.71
2019-04-28T06:00:51.223Z,14.77
2019-04-28T06:02:02.619Z,14.74
2019-04-28T06:03:14.102Z,14.69
2019-04-28T06:04:19.931Z,14.55
2019-04-28T06:05:23.682Z,14.62
2019-04-28T06:06:30.309Z,14.62
2019-04-28T06:07:40.535Z,14.64
2019-04-28T06:08:51.817Z,14.62
2019-04-28T06:09:55.605Z,14.58
2019-04-28T06:10:59.932Z,14.48
2019-04-28T06:12:05.295Z,14.44
2019-04-28T06:13:09.991Z,14.44
2019-04-28T06:14:13.689Z,14.41
2019-04-28T06:15:17.316Z,14.43
2019-04-28T06:16:22.122Z,14.48
2019-04-28T06:17:25.955Z,14.50
2019-04-28T06:18:30.807Z,14.58
2019-04-28T06:19:34.547Z,14.61
2019-04-28T06:20:38.195Z,14.66
2019-04-28T06:21:41.807Z,14.52
2019-04-28T06:22:45.455Z,14.42
2019-04-28T06:23:49.111Z,14.48
2019-04-28T06:24:52.752Z,14.54
2019-04-28T06:25:56.427Z,14.54
2019-04-28T06:27:00.044Z,14.53
2019-04-28T06:28:03.682Z,14.59
2019-04-28T06:29:07.416Z,14.66
2019-04-28T06:30:11.668Z,14.74
2019-04-28T06:31:15.297Z,14.82
2019-04-28T06:32:18.948Z,14.86
2019-04-28T06:33:22.600Z,14.96
2019-04-28T06:34:26.418Z,15.01
2019-04-28T06:35:30.066Z,15.03
2019-04-28T06:36:34.092Z,15.03
2019-04-28T06:37:37.751Z,15.05
2019-04-28T06:38:41.310Z,15.01
2019-04-28T06:39:47.308Z,14.90
2019-04-28T06:40:50.287Z,14.90
2019-04-28T06:41:53.866Z,14.85
2019-04-28T06:42:57.878Z,14.78
2019-04-28T06:44:01.837Z,14.86
2019-04-28T06:45:06.620Z,14.91
2019-04-28T06:46:10.254Z,14.96
2019-04-28T06:47:16.669Z,14.93
2019-04-28T06:48:19.265Z,14.91
2019-04-28T06:49:22.891Z,15.04
2019-04-28T06:50:26.498Z,15.00
2019-04-28T06:51:30.134Z,14.85
2019-04-28T06:52:33.773Z,14.94
2019-04-28T06:53:37.436Z,15.03
2019-04-28T06:54:41.057Z,15.04
2019-04-28T06:55:44.731Z,15.13
2019-04-28T06:56:48.372Z,15.24
2019-04-28T06:57:52.005Z,15.23
2019-04-28T06:58:59.125Z,15.31
2019-04-28T07:00:01.022Z,15.47
2019-04-28T07:01:04.701Z,15.63
2019-04-28T07:02:08.354Z,15.80
2019-04-28T07:03:22.577Z,15.95
2019-04-28T07:04:17.372Z,16.07
2019-04-28T07:05:21.025Z,15.99
2019-04-28T07:06:26.177Z,15.96
2019-04-28T07:07:29.853Z,15.80
2019-04-28T07:08:33.487Z,15.67
2019-04-28T07:09:37.488Z,15.64
2019-04-28T07:10:41.192Z,15.53
2019-04-28T07:11:44.880Z,15.59
2019-04-28T07:12:48.535Z,15.55
2019-04-28T07:13:52.160Z,15.62
2019-04-28T07:14:55.789Z,15.74
2019-04-28T07:15:59.447Z,15.83
2019-04-28T07:17:03.130Z,15.88
2019-04-28T07:18:07.118Z,16.04
2019-04-28T07:19:10.764Z,16.26
2019-04-28T07:20:21.909Z,16.36
2019-04-28T07:21:33.145Z,16.30
2019-04-28T07:22:36.823Z,16.40
2019-04-28T07:23:40.924Z,16.72
2019-04-28T07:24:44.954Z,16.99
2019-04-28T07:25:48.688Z,17.07
2019-04-28T07:26:52.385Z,17.19
2019-04-28T07:27:56.071Z,17.28
2019-04-28T07:28:59.703Z,17.42
2019-04-28T07:30:04.688Z,17.68
2019-04-28T07:31:08.364Z,17.98
2019-04-28T07:32:12.014Z,18.24
2019-04-28T07:33:15.734Z,18.24
2019-04-28T07:34:19.295Z,18.21
2019-04-28T07:35:23.524Z,18.46
2019-04-28T07:36:27.222Z,18.68
2019-04-28T07:37:34.219Z,18.92
2019-04-28T07:38:37.964Z,19.03
2019-04-28T07:39:41.583Z,19.01
2019-04-28T07:40:45.763Z,19.08
2019-04-28T07:41:49.422Z,19.24
2019-04-28T07:42:53.072Z,19.58
2019-04-28T07:43:56.742Z,19.76
2019-04-28T07:45:03.316Z,19.95
2019-04-28T07:46:07.408Z,20.21
2019-04-28T07:47:11.032Z,20.22
2019-04-28T07:48:14.810Z,20.27
2019-04-28T07:49:18.530Z,20.37
2019-04-28T07:50:22.160Z,20.37
2019-04-28T07:51:27.868Z,20.36
2019-04-28T07:52:39.027Z,20.28
2019-04-28T07:53:56.540Z,20.13
2019-04-28T07:55:00.246Z,19.95
2019-04-28T07:56:03.932Z,19.58
2019-04-28T07:57:07.632Z,19.25
2019-04-28T07:58:11.270Z,19.05
2019-04-28T07:59:15.350Z,19.04
2019-04-28T08:00:20.681Z,19.09
2019-04-28T08:01:24.341Z,19.03
2019-04-28T08:02:28.023Z,18.87
2019-04-28T08:03:31.655Z,18.82
2019-04-28T08:04:35.290Z,18.84
2019-04-28T08:05:38.988Z,18.79
2019-04-28T08:06:42.738Z,18.63
2019-04-28T08:07:46.452Z,18.86
2019-04-28T08:08:50.098Z,19.25
2019-04-28T08:09:54.123Z,19.31
2019-04-28T08:10:57.814Z,19.33
2019-04-28T08:12:01.463Z,19.23
2019-04-28T08:13:05.087Z,19.37
2019-04-28T08:14:08.716Z,19.76
2019-04-28T08:15:12.377Z,20.20
2019-04-28T08:16:16.042Z,20.46
2019-04-28T08:17:19.696Z,20.91
2019-04-28T08:18:23.506Z,21.38
2019-04-28T08:19:27.124Z,21.84
2019-04-28T08:20:30.772Z,21.79
2019-04-28T08:21:34.524Z,22.35
2019-04-28T08:22:38.178Z,22.67
2019-04-28T08:23:47.377Z,22.92
2019-04-28T08:24:47.185Z,23.12
2019-04-28T08:25:50.826Z,23.62
2019-04-28T08:26:54.690Z,23.96
2019-04-28T08:27:58.372Z,24.39
2019-04-28T08:29:02.072Z,24.94
2019-04-28T08:30:06.984Z,25.38
2019-04-28T08:31:12.425Z,25.04
2019-04-28T08:32:26.907Z,24.25
2019-04-28T08:33:39.752Z,24.21
2019-04-28T08:34:43.393Z,24.85
2019-04-28T08:35:47.044Z,25.48
2019-04-28T08:36:50.745Z,26.13
2019-04-28T08:37:54.419Z,26.51
2019-04-28T08:38:58.075Z,26.91
2019-04-28T08:40:01.706Z,26.80
2019-04-28T08:41:05.359Z,26.86
2019-04-28T08:42:09.014Z,27.12
2019-04-28T08:43:12.688Z,27.21
2019-04-28T08:44:16.320Z,27.17
2019-04-28T08:45:20.051Z,27.48
2019-04-28T08:46:23.706Z,27.62
2019-04-28T08:47:27.336Z,27.90
2019-04-28T08:48:31.397Z,27.79
2019-04-28T08:49:35.026Z,28.18
2019-04-28T08:50:38.658Z,28.67
2019-04-28T08:51:42.375Z,28.75
2019-04-28T08:52:45.963Z,28.86
2019-04-28T08:53:49.796Z,29.39
2019-04-28T08:54:53.498Z,29.94
2019-04-28T08:55:57.128Z,30.33
2019-04-28T08:57:00.791Z,30.49
2019-04-28T08:58:04.544Z,30.61
2019-04-28T08:59:08.221Z,30.88
2019-04-28T09:00:12.627Z,31.21
2019-04-28T09:01:16.339Z,30.90
2019-04-28T09:02:19.970Z,31.05
2019-04-28T09:03:23.628Z,31.31
2019-04-28T09:04:27.288Z,31.37
2019-04-28T09:05:30.974Z,31.19
2019-04-28T09:06:34.616Z,31.20
2019-04-28T09:07:38.252Z,31.33
2019-04-28T09:08:41.893Z,30.91
2019-04-28T09:09:45.577Z,30.79
2019-04-28T09:10:49.129Z,30.81
2019-04-28T09:11:52.751Z,30.84
2019-04-28T09:12:56.393Z,31.41
2019-04-28T09:14:00.429Z,31.61
2019-04-28T09:15:06.490Z,31.91
2019-04-28T09:16:10.123Z,32.12
2019-04-28T09:17:13.852Z,32.28
2019-04-28T09:18:17.480Z,32.67
2019-04-28T09:19:21.206Z,32.97
2019-04-28T09:20:24.873Z,32.74
2019-04-28T09:21:28.499Z,33.02
2019-04-28T09:22:32.502Z,33.17
2019-04-28T09:23:36.511Z,32.76
2019-04-28T09:24:40.558Z,33.05
2019-04-28T09:25:44.230Z,33.43
2019-04-28T09:26:47.870Z,33.58
2019-04-28T09:27:51.574Z,33.74
2019-04-28T09:28:55.230Z,33.86
2019-04-28T09:29:58.866Z,34.11
2019-04-28T09:31:03.323Z,34.21
2019-04-28T09:32:06.971Z,33.13
2019-04-28T09:33:10.600Z,32.65
2019-04-28T09:34:14.193Z,33.13
2019-04-28T09:35:17.823Z,33.62
2019-04-28T09:36:21.502Z,33.39
2019-04-28T09:37:25.541Z,33.39
2019-04-28T09:38:29.179Z,33.26
2019-04-28T09:39:52.747Z,32.94
2019-04-28T09:40:56.408Z,32.67
2019-04-28T09:42:18.230Z,32.71
2019-04-28T09:43:26.238Z,32.85
2019-04-28T09:44:29.888Z,32.66
2019-04-28T09:45:37.905Z,32.23
2019-04-28T09:46:46.044Z,31.99
2019-04-28T09:47:49.768Z,32.28
2019-04-28T09:48:56.245Z,32.26
2019-04-28T09:49:59.972Z,32.24
2019-04-28T09:51:03.956Z,32.22
2019-04-28T09:52:07.632Z,31.71
2019-04-28T09:53:11.318Z,31.91
2019-04-28T09:54:14.959Z,32.09
2019-04-28T09:55:18.598Z,32.30
2019-04-28T09:56:22.228Z,32.35
2019-04-28T09:57:25.873Z,32.52
2019-04-28T09:58:29.567Z,32.33
2019-04-28T09:59:33.220Z,31.50
2019-04-28T10:00:38.492Z,31.32
2019-04-28T10:01:42.152Z,31.46
2019-04-28T10:02:45.795Z,31.50
2019-04-28T10:03:51.100Z,31.47
2019-04-28T10:04:54.747Z,31.59
2019-04-28T10:05:58.826Z,31.12
2019-04-28T10:07:02.576Z,31.04
2019-04-28T10:08:06.206Z,30.84
2019-04-28T10:09:10.529Z,30.84
2019-04-28T10:10:14.676Z,31.26
2019-04-28T10:11:30.011Z,31.66
2019-04-28T10:12:27.383Z,31.69
2019-04-28T10:13:29.188Z,31.44
2019-04-28T10:14:33.010Z,31.38
2019-04-28T10:15:36.722Z,31.53
2019-04-28T10:16:40.531Z,31.50
2019-04-28T10:17:44.377Z,31.07
2019-04-28T10:18:48.080Z,31.56
2019-04-28T10:19:53.400Z,32.07
2019-04-28T10:20:57.073Z,32.43
2019-04-28T10:22:00.759Z,31.98
2019-04-28T10:23:04.436Z,32.08
2019-04-28T10:24:10.284Z,32.30
2019-04-28T10:25:14.654Z,32.57
2019-04-28T10:26:20.035Z,32.81
2019-04-28T10:27:25.371Z,32.90
2019-04-28T10:28:30.553Z,32.83
2019-04-28T10:29:37.308Z,32.68
2019-04-28T10:30:44.263Z,32.46
2019-04-28T10:31:47.908Z,32.70
2019-04-28T10:32:51.732Z,33.05
2019-04-28T10:33:57.237Z,33.38
2019-04-28T10:35:03.001Z,33.64
2019-04-28T10:36:11.098Z,33.86
2019-04-28T10:37:17.642Z,33.99
2019-04-28T10:38:24.436Z,34.15
2019-04-28T10:39:54.674Z,33.49
2019-04-28T10:41:05.633Z,33.16
2019-04-28T10:42:12.434Z,32.90
2019-04-28T10:43:16.103Z,32.27
2019-04-28T10:44:21.922Z,32.49
2019-04-28T10:45:27.223Z,32.41
2019-04-28T10:46:30.913Z,32.43
2019-04-28T10:47:40.482Z,32.64
2019-04-28T10:48:44.737Z,32.73
2019-04-28T10:49:52.130Z,32.52
2019-04-28T10:50:57.344Z,32.39
2019-04-28T10:52:03.892Z,32.27
2019-04-28T10:53:07.646Z,32.27
2019-04-28T10:54:11.408Z,32.20
2019-04-28T10:55:15.006Z,32.28
2019-04-28T10:56:18.788Z,32.38
2019-04-28T10:57:22.811Z,32.21
2019-04-28T10:58:26.806Z,32.08
2019-04-28T10:59:30.451Z,32.21
2019-04-28T11:00:38.722Z,32.21
2019-04-28T11:01:42.380Z,32.00
2019-04-28T11:02:46.034Z,31.93
2019-04-28T11:03:51.756Z,31.94
2019-04-28T11:05:07.783Z,31.78
2019-04-28T11:06:02.659Z,31.83
2019-04-28T11:07:06.472Z,31.80
2019-04-28T11:08:27.121Z,31.95
2019-04-28T11:09:32.462Z,32.07
2019-04-28T11:10:36.220Z,32.07
2019-04-28T11:11:39.873Z,32.44
2019-04-28T11:12:43.526Z,32.87
2019-04-28T11:13:47.188Z,33.28
2019-04-28T11:14:50.904Z,33.23
2019-04-28T11:15:54.493Z,33.37
2019-04-28T11:16:58.564Z,33.81
2019-04-28T11:18:02.553Z,34.09
2019-04-28T11:19:06.374Z,34.33
2019-04-28T11:20:10.341Z,34.51
2019-04-28T11:21:14.043Z,34.48
2019-04-28T11:22:18.082Z,34.37
2019-04-28T11:23:23.229Z,34.39
2019-04-28T11:24:27.425Z,34.11
2019-04-28T11:25:31.381Z,34.11
2019-04-28T11:26:35.005Z,34.06
2019-04-28T11:27:38.730Z,34.20
2019-04-28T11:28:42.510Z,34.30
2019-04-28T11:29:46.270Z,34.05
2019-04-28T11:30:50.083Z,34.11
2019-04-28T11:31:53.816Z,33.98
2019-04-28T11:33:08.581Z,34.07
2019-04-28T11:34:32.044Z,34.00
2019-04-28T11:35:37.422Z,33.41
2019-04-28T11:36:41.483Z,32.91
2019-04-28T11:37:45.126Z,31.99
2019-04-28T11:38:48.800Z,31.22
2019-04-28T11:39:55.440Z,30.97
2019-04-28T11:41:01.084Z,30.96
2019-04-28T11:42:04.997Z,30.93
2019-04-28T11:43:08.785Z,31.30
2019-04-28T11:44:12.902Z,31.51
2019-04-28T11:45:17.200Z,32.21
2019-04-28T11:46:22.780Z,32.79
2019-04-28T11:47:26.741Z,32.96
2019-04-28T11:48:30.491Z,33.27
2019-04-28T11:49:34.794Z,33.68
2019-04-28T11:50:38.760Z,33.70
2019-04-28T11:51:44.979Z,33.56
2019-04-28T11:52:52.504Z,33.96
2019-04-28T11:53:55.793Z,34.05
2019-04-28T11:54:59.601Z,33.97
2019-04-28T11:56:03.387Z,33.63
2019-04-28T11:57:08.641Z,33.26
2019-04-28T11:58:12.404Z,32.93
2019-04-28T11:59:16.122Z,32.50
2019-04-28T12:00:27.839Z,32.34
2019-04-28T12:01:31.618Z,32.15
2019-04-28T12:02:35.537Z,31.80
2019-04-28T12:03:39.305Z,31.66
2019-04-28T12:04:45.370Z,31.66
2019-04-28T12:05:49.157Z,31.60
2019-04-28T12:06:52.954Z,31.50
2019-04-28T12:07:56.596Z,30.98
2019-04-28T12:09:17.314Z,30.07
2019-04-28T12:10:25.631Z,29.36
2019-04-28T12:11:32.379Z,29.17
2019-04-28T12:12:40.236Z,29.13
2019-04-28T12:13:48.359Z,29.19
2019-04-28T12:15:05.920Z,29.24
2019-04-28T12:16:20.055Z,29.17
2019-04-28T12:17:36.946Z,28.94
2019-04-28T12:18:42.217Z,28.83
2019-04-28T12:19:53.341Z,28.91
2019-04-28T12:20:57.055Z,29.04
2019-04-28T12:22:02.125Z,29.19
2019-04-28T12:23:05.981Z,29.31
2019-04-28T12:24:09.790Z,29.12
2019-04-28T12:25:13.509Z,28.95
2019-04-28T12:26:17.412Z,29.19
2019-04-28T12:27:21.036Z,29.50
2019-04-28T12:28:24.761Z,29.61
2019-04-28T12:29:28.493Z,29.70
2019-04-28T12:30:33.829Z,29.72
2019-04-28T12:31:37.624Z,29.29
2019-04-28T12:32:41.273Z,29.08
2019-04-28T12:33:45.381Z,28.58
2019-04-28T12:34:49.013Z,28.48
2019-04-28T12:35:52.769Z,28.47
2019-04-28T12:36:56.572Z,28.67
2019-04-28T12:38:04.904Z,28.63
2019-04-28T12:39:09.270Z,28.60
2019-04-28T12:40:15.586Z,28.50
2019-04-28T12:41:19.355Z,28.62
2019-04-28T12:42:23.161Z,28.56
2019-04-28T12:43:32.442Z,28.84
2019-04-28T12:44:36.279Z,28.62
2019-04-28T12:45:39.934Z,28.85
2019-04-28T12:46:48.063Z,29.10
2019-04-28T12:47:52.137Z,29.31
2019-04-28T12:48:57.408Z,29.40
2019-04-28T12:50:04.427Z,29.38
2019-04-28T12:51:08.093Z,29.31
2019-04-28T12:52:12.169Z,29.41
2019-04-28T12:53:15.953Z,29.41
2019-04-28T12:54:21.618Z,29.59
2019-04-28T12:55:25.589Z,29.60
2019-04-28T12:56:29.318Z,29.64
2019-04-28T12:57:36.178Z,29.61
2019-04-28T12:58:39.977Z,29.80
2019-04-28T12:59:48.039Z,29.39
2019-04-28T13:01:02.589Z,29.60
2019-04-28T13:02:17.679Z,29.93
2019-04-28T13:03:22.892Z,30.44
2019-04-28T13:04:31.873Z,30.59
2019-04-28T13:05:38.914Z,30.72
2019-04-28T13:06:44.315Z,30.91
2019-04-28T13:07:47.959Z,31.12
2019-04-28T13:08:51.948Z,31.21
2019-04-28T13:09:55.587Z,31.23
2019-04-28T13:10:59.351Z,31.44
2019-04-28T13:12:03.353Z,31.46
2019-04-28T13:13:07.012Z,31.62
2019-04-28T13:14:10.665Z,31.83
2019-04-28T13:15:14.358Z,31.76
2019-04-28T13:16:20.031Z,31.68
2019-04-28T13:17:23.415Z,31.55
2019-04-28T13:18:27.958Z,31.69
2019-04-28T13:19:31.610Z,31.75
2019-04-28T13:20:35.297Z,31.51
2019-04-28T13:21:40.983Z,31.41
2019-04-28T13:22:45.756Z,31.54
2019-04-28T13:23:49.500Z,31.93
2019-04-28T13:24:53.113Z,31.90
2019-04-28T13:25:56.757Z,31.52
2019-04-28T13:27:00.564Z,31.45
2019-04-28T13:28:04.194Z,31.62
2019-04-28T13:29:07.815Z,32.01
2019-04-28T13:30:11.611Z,31.97
2019-04-28T13:31:15.311Z,31.63
2019-04-28T13:32:18.956Z,31.14
2019-04-28T13:33:22.613Z,30.90
2019-04-28T13:34:27.337Z,30.81
2019-04-28T13:35:31.032Z,30.73
2019-04-28T13:36:34.647Z,30.83
2019-04-28T13:37:38.324Z,31.05
2019-04-28T13:38:42.037Z,30.89
2019-04-28T13:39:59.632Z,30.89
2019-04-28T13:41:03.239Z,30.80
2019-04-28T13:42:06.894Z,30.43
2019-04-28T13:43:10.575Z,30.06
2019-04-28T13:44:15.972Z,29.65
2019-04-28T13:45:21.275Z,29.52
2019-04-28T13:46:24.918Z,29.29
2019-04-28T13:47:28.659Z,29.10
2019-04-28T13:48:32.782Z,28.78
2019-04-28T13:49:50.393Z,28.91
2019-04-28T13:50:54.032Z,29.03
2019-04-28T13:51:57.676Z,29.31
2019-04-28T13:53:01.306Z,29.24
2019-04-28T13:54:06.615Z,29.28
2019-04-28T13:55:12.836Z,29.23
2019-04-28T13:56:18.591Z,29.25
2019-04-28T13:57:22.311Z,29.48
2019-04-28T13:58:30.883Z,29.69
2019-04-28T13:59:34.536Z,29.71